Time;durP1;ratioP1;P1;durP2;ratioP2;P2;SDS_P1;SDS_P2;PMS_P1;PMS_P2;Temp;Humidity;BMP_temperature;BMP_pressure;BME280_temperature;BME280_humidity;BME280_pressure;Samples;Min_cycle;Max_cycle;Signal;HPM_P1;HPM_P2
2023/12/10 00:00:19;;;;;;;30.90;25.98;;;;;;;;;;5105588;28;20031;-53
2023/12/10 00:02:46;;;;;;;30.20;24.45;;;;;;;;;;5105555;28;20032;-48
2023/12/10 00:05:13;;;;;;;30.25;23.65;;;;;;;;;;5105655;28;20050;-50
2023/12/10 00:07:39;;;;;;;28.95;22.73;;;;;;;;;;5105450;28;20020;-49
2023/12/10 00:10:06;;;;;;;27.25;20.35;;;;;;;;;;5105456;28;20085;-53
2023/12/10 00:12:33;;;;;;;21.25;19.05;;;;;;;;;;5105389;28;20324;-48
2023/12/10 00:15:00;;;;;;;23.38;18.65;;;;;;;;;;5105300;28;20020;-47
2023/12/10 00:17:31;;;;;;;30.95;18.75;;;;;;;;;;5105467;28;20194;-48
2023/12/10 00:19:57;;;;;;;25.35;17.90;;;;;;;;;;5105309;28;20024;-43
2023/12/10 00:22:24;;;;;;;26.08;19.45;;;;;;;;;;5104973;28;20095;-55
2023/12/10 00:24:52;;;;;;;20.45;18.13;;;;;;;;;;5098617;28;20028;-51
2023/12/10 00:27:19;;;;;;;29.45;18.30;;;;;;;;;;5095793;28;20062;-54
2023/12/10 00:29:48;;;;;;;27.60;18.30;;;;;;;;;;5104733;28;20023;-48
2023/12/10 00:32:14;;;;;;;33.97;18.92;;;;;;;;;;5098570;28;20055;-51
2023/12/10 00:34:41;;;;;;;29.25;17.67;;;;;;;;;;5095443;28;20288;-53
2023/12/10 00:37:08;;;;;;;24.17;17.33;;;;;;;;;;5105368;28;20031;-51
2023/12/10 00:39:35;;;;;;;27.05;17.02;;;;;;;;;;5104735;28;20055;-53
2023/12/10 00:42:03;;;;;;;25.67;22.00;;;;;;;;;;5104908;28;20110;-49
2023/12/10 00:44:31;;;;;;;32.75;26.77;;;;;;;;;;5084989;28;20307;-53
2023/12/10 00:46:57;;;;;;;34.33;24.35;;;;;;;;;;5096799;28;20039;-45
2023/12/10 00:49:24;;;;;;;25.08;19.92;;;;;;;;;;5104034;28;20034;-50
2023/12/10 00:51:51;;;;;;;17.85;15.27;;;;;;;;;;5103257;28;20020;-46
2023/12/10 00:54:17;;;;;;;16.15;13.32;;;;;;;;;;5103245;28;20039;-52
2023/12/10 00:56:44;;;;;;;16.35;11.93;;;;;;;;;;5103616;28;20054;-59
2023/12/10 00:59:11;;;;;;;16.92;10.70;;;;;;;;;;5104471;28;20069;-51
2023/12/10 01:01:37;;;;;;;15.20;11.20;;;;;;;;;;5104621;28;20034;-53
2023/12/10 01:04:04;;;;;;;21.83;18.15;;;;;;;;;;5104370;28;20028;-46
2023/12/10 01:06:33;;;;;;;30.48;23.88;;;;;;;;;;5104636;28;20022;-55
2023/12/10 01:09:01;;;;;;;34.45;28.58;;;;;;;;;;5104047;28;20052;-49
2023/12/10 01:11:28;;;;;;;36.78;28.77;;;;;;;;;;5103032;28;20036;-47
2023/12/10 01:13:55;;;;;;;34.83;28.75;;;;;;;;;;5103475;28;20363;-43
2023/12/10 01:16:21;;;;;;;31.20;25.58;;;;;;;;;;5104233;28;20039;-47
2023/12/10 01:18:48;;;;;;;23.85;20.83;;;;;;;;;;5104217;28;20036;-49
2023/12/10 01:21:16;;;;;;;19.73;17.35;;;;;;;;;;5104512;28;20028;-47
2023/12/10 01:23:42;;;;;;;20.67;14.48;;;;;;;;;;5104181;28;20035;-46
2023/12/10 01:26:13;;;;;;;15.68;11.50;;;;;;;;;;5103923;28;20083;-44
2023/12/10 01:28:41;;;;;;;12.57;8.40;;;;;;;;;;5104045;28;20024;-45
2023/12/10 01:31:09;;;;;;;10.85;7.15;;;;;;;;;;5104269;28;20060;-45
2023/12/10 01:33:35;;;;;;;11.20;6.85;;;;;;;;;;5104088;28;20050;-44
2023/12/10 01:36:02;;;;;;;11.95;6.00;;;;;;;;;;5104310;28;20024;-44
2023/12/10 01:38:31;;;;;;;8.90;6.10;;;;;;;;;;5104474;28;20295;-45
2023/12/10 01:40:58;;;;;;;8.60;5.05;;;;;;;;;;5104255;28;20261;-43
2023/12/10 01:43:27;;;;;;;5.95;4.00;;;;;;;;;;5103903;28;20044;-45
2023/12/10 01:45:54;;;;;;;5.90;4.15;;;;;;;;;;5104074;28;20224;-49
2023/12/10 01:48:21;;;;;;;6.28;3.75;;;;;;;;;;5103833;28;20027;-51
2023/12/10 01:50:50;;;;;;;8.50;3.90;;;;;;;;;;5103930;28;20062;-47
2023/12/10 01:53:18;;;;;;;6.28;3.67;;;;;;;;;;5104069;28;20036;-53
2023/12/10 01:55:45;;;;;;;6.85;3.50;;;;;;;;;;5103920;28;20020;-44
2023/12/10 01:58:12;;;;;;;7.10;3.20;;;;;;;;;;5103715;28;20079;-50
2023/12/10 02:00:39;;;;;;;8.52;3.05;;;;;;;;;;5103870;28;20392;-49
2023/12/10 02:03:06;;;;;;;6.22;3.00;;;;;;;;;;5103882;28;20049;-50
2023/12/10 02:05:32;;;;;;;5.15;2.60;;;;;;;;;;5100798;28;20072;-54
2023/12/10 02:07:59;;;;;;;5.93;2.90;;;;;;;;;;5104415;28;20038;-62
2023/12/10 02:10:26;;;;;;;5.50;3.17;;;;;;;;;;5102445;28;20189;-46
2023/12/10 02:12:53;;;;;;;7.43;2.50;;;;;;;;;;5107587;28;20039;-63
2023/12/10 02:15:22;;;;;;;4.72;2.75;;;;;;;;;;5100000;28;20032;-49
2023/12/10 02:17:49;;;;;;;6.88;2.72;;;;;;;;;;5100080;28;20323;-46
2023/12/10 02:20:18;;;;;;;7.45;2.83;;;;;;;;;;5089957;28;20095;-56
2023/12/10 02:22:47;;;;;;;7.07;2.72;;;;;;;;;;5087074;28;20040;-51
2023/12/10 02:25:14;;;;;;;7.65;2.80;;;;;;;;;;5087216;28;20036;-50
2023/12/10 02:27:41;;;;;;;7.57;2.50;;;;;;;;;;5086737;28;20099;-50
2023/12/10 02:30:09;;;;;;;9.02;2.90;;;;;;;;;;5087210;28;20024;-53
2023/12/10 02:32:36;;;;;;;7.05;2.45;;;;;;;;;;5087000;28;20020;-44
2023/12/10 02:35:02;;;;;;;4.93;2.50;;;;;;;;;;5095077;28;20016;-63
2023/12/10 02:37:30;;;;;;;3.42;2.50;;;;;;;;;;5107201;28;20290;-54
2023/12/10 02:39:58;;;;;;;9.77;2.70;;;;;;;;;;5107346;28;20024;-53
2023/12/10 02:42:24;;;;;;;7.45;2.40;;;;;;;;;;5107070;28;20335;-56
2023/12/10 02:44:52;;;;;;;5.53;2.70;;;;;;;;;;5107085;28;20081;-55
2023/12/10 02:47:19;;;;;;;4.50;2.70;;;;;;;;;;5107089;28;20388;-49
2023/12/10 02:49:46;;;;;;;4.53;2.60;;;;;;;;;;5124092;28;20057;-53
2023/12/10 02:52:12;;;;;;;7.57;2.90;;;;;;;;;;5127610;28;20032;-56
2023/12/10 02:54:39;;;;;;;6.55;3.00;;;;;;;;;;5127360;28;20055;-51
2023/12/10 02:57:06;;;;;;;4.40;2.60;;;;;;;;;;5127821;28;20023;-49
2023/12/10 02:59:32;;;;;;;3.22;2.88;;;;;;;;;;5127108;28;20262;-49
2023/12/10 03:01:59;;;;;;;5.45;2.50;;;;;;;;;;5127677;28;20307;-52
2023/12/10 03:04:26;;;;;;;6.03;2.55;;;;;;;;;;5127073;28;20024;-47
2023/12/10 03:06:54;;;;;;;4.35;2.50;;;;;;;;;;5110625;28;20340;-50
2023/12/10 03:09:20;;;;;;;6.65;2.47;;;;;;;;;;5105383;28;20032;-51
2023/12/10 03:11:47;;;;;;;4.38;2.42;;;;;;;;;;5106552;28;20266;-49
2023/12/10 03:14:14;;;;;;;8.02;2.88;;;;;;;;;;5105825;28;20034;-55
2023/12/10 03:16:40;;;;;;;5.65;3.13;;;;;;;;;;5106887;28;20268;-50
2023/12/10 03:19:07;;;;;;;3.55;2.78;;;;;;;;;;5105737;28;20058;-49
2023/12/10 03:21:34;;;;;;;3.03;2.50;;;;;;;;;;5106612;28;20197;-50
2023/12/10 03:24:00;;;;;;;4.93;2.67;;;;;;;;;;5106292;28;20054;-46
2023/12/10 03:26:29;;;;;;;4.28;2.45;;;;;;;;;;5106223;28;20059;-51
2023/12/10 03:28:56;;;;;;;6.18;2.50;;;;;;;;;;5106078;28;20268;-55
2023/12/10 03:31:23;;;;;;;3.72;2.58;;;;;;;;;;5106100;28;20080;-52
2023/12/10 03:33:50;;;;;;;5.10;2.15;;;;;;;;;;5106047;28;20019;-48
2023/12/10 03:36:21;;;;;;;4.90;2.40;;;;;;;;;;5106247;28;20051;-50
2023/12/10 03:38:48;;;;;;;7.03;2.63;;;;;;;;;;5106114;28;20078;-52
2023/12/10 03:41:15;;;;;;;5.00;2.50;;;;;;;;;;5106215;28;20262;-44
2023/12/10 03:43:41;;;;;;;4.57;2.58;;;;;;;;;;5105692;28;20040;-50
2023/12/10 03:46:08;;;;;;;5.40;2.60;;;;;;;;;;5106270;28;20315;-46
2023/12/10 03:48:35;;;;;;;2.80;2.45;;;;;;;;;;5105887;28;20020;-54
2023/12/10 03:51:01;;;;;;;3.60;2.55;;;;;;;;;;5105606;28;20137;-50
2023/12/10 03:53:28;;;;;;;3.38;2.63;;;;;;;;;;5105827;28;20028;-45
2023/12/10 03:55:55;;;;;;;5.30;2.50;;;;;;;;;;5105952;28;20059;-50
2023/12/10 03:58:21;;;;;;;3.75;2.63;;;;;;;;;;5105744;28;20189;-51
2023/12/10 04:00:48;;;;;;;4.00;2.63;;;;;;;;;;5104889;28;20034;-44
2023/12/10 04:03:15;;;;;;;3.03;2.30;;;;;;;;;;5105644;28;20024;-47
2023/12/10 04:05:41;;;;;;;4.35;2.53;;;;;;;;;;5105582;28;20230;-44
2023/12/10 04:08:08;;;;;;;3.88;2.55;;;;;;;;;;5105448;28;20016;-52
2023/12/10 04:10:35;;;;;;;3.97;2.63;;;;;;;;;;5105527;28;20023;-48
2023/12/10 04:13:03;;;;;;;4.90;2.80;;;;;;;;;;5105207;28;20028;-51
2023/12/10 04:15:29;;;;;;;6.80;3.25;;;;;;;;;;5105534;28;20055;-46
2023/12/10 04:17:56;;;;;;;4.07;2.90;;;;;;;;;;5105338;28;20012;-47
2023/12/10 04:20:23;;;;;;;5.50;3.00;;;;;;;;;;5105307;28;20035;-51
2023/12/10 04:22:49;;;;;;;5.88;2.70;;;;;;;;;;5105249;28;20028;-46
2023/12/10 04:25:16;;;;;;;4.57;2.92;;;;;;;;;;5105090;28;20027;-47
2023/12/10 04:27:43;;;;;;;5.00;2.90;;;;;;;;;;5104747;28;20047;-45
2023/12/10 04:30:10;;;;;;;5.53;2.88;;;;;;;;;;5104667;28;20032;-45
2023/12/10 04:32:36;;;;;;;5.18;3.22;;;;;;;;;;5104417;28;20020;-45
2023/12/10 04:35:03;;;;;;;6.03;3.38;;;;;;;;;;5104868;28;20040;-48
2023/12/10 04:37:30;;;;;;;3.50;3.20;;;;;;;;;;5105035;28;20057;-49
2023/12/10 04:39:57;;;;;;;6.32;2.92;;;;;;;;;;5104903;28;20027;-52
2023/12/10 04:42:24;;;;;;;3.10;2.80;;;;;;;;;;5104773;28;20252;-51
2023/12/10 04:44:51;;;;;;;5.97;3.08;;;;;;;;;;5104729;28;20039;-49
2023/12/10 04:47:17;;;;;;;4.78;2.88;;;;;;;;;;5104822;28;20211;-45
2023/12/10 04:49:44;;;;;;;4.38;2.50;;;;;;;;;;5104670;28;20313;-52
2023/12/10 04:52:11;;;;;;;6.03;2.95;;;;;;;;;;5104906;28;20036;-49
2023/12/10 04:54:37;;;;;;;4.35;2.58;;;;;;;;;;5104677;28;20023;-48
2023/12/10 04:57:04;;;;;;;4.38;2.80;;;;;;;;;;5105052;28;20039;-49
2023/12/10 04:59:31;;;;;;;5.55;2.63;;;;;;;;;;5104367;28;20032;-48
2023/12/10 05:01:58;;;;;;;3.78;2.85;;;;;;;;;;5104887;28;20046;-48
2023/12/10 05:04:24;;;;;;;3.35;2.75;;;;;;;;;;5104369;28;20028;-49
2023/12/10 05:06:51;;;;;;;4.68;3.22;;;;;;;;;;5104724;28;20020;-50
2023/12/10 05:09:18;;;;;;;3.53;2.90;;;;;;;;;;5104508;28;20043;-46
2023/12/10 05:11:44;;;;;;;5.60;2.70;;;;;;;;;;5104266;28;20339;-46
2023/12/10 05:14:11;;;;;;;3.05;2.60;;;;;;;;;;5104193;28;20028;-50
2023/12/10 05:16:38;;;;;;;4.20;2.55;;;;;;;;;;5104627;28;20020;-47
2023/12/10 05:19:06;;;;;;;6.28;2.88;;;;;;;;;;5104312;28;20100;-56
2023/12/10 05:21:33;;;;;;;2.75;2.30;;;;;;;;;;5104433;28;20035;-54
2023/12/10 05:24:00;;;;;;;4.45;2.67;;;;;;;;;;5104066;28;20042;-48
2023/12/10 05:26:27;;;;;;;4.70;2.72;;;;;;;;;;5104141;28;20043;-53
2023/12/10 05:28:54;;;;;;;4.55;2.85;;;;;;;;;;5104054;28;20380;-51
2023/12/10 05:31:21;;;;;;;4.10;2.53;;;;;;;;;;5104108;28;20028;-54
2023/12/10 05:33:48;;;;;;;3.80;2.38;;;;;;;;;;5104110;28;20039;-49
2023/12/10 05:36:16;;;;;;;3.83;2.38;;;;;;;;;;5104225;28;20203;-50
2023/12/10 05:38:42;;;;;;;3.63;2.53;;;;;;;;;;5104175;28;20015;-49
2023/12/10 05:41:09;;;;;;;4.72;2.42;;;;;;;;;;5104317;28;20095;-52
2023/12/10 05:43:36;;;;;;;3.55;2.47;;;;;;;;;;5107114;28;20031;-51
2023/12/10 05:46:02;;;;;;;2.65;2.20;;;;;;;;;;5108557;28;20066;-46
2023/12/10 05:48:29;;;;;;;6.60;2.78;;;;;;;;;;5108123;28;20043;-50
2023/12/10 05:50:56;;;;;;;4.00;2.50;;;;;;;;;;5108202;28;20028;-50
2023/12/10 05:53:23;;;;;;;2.83;2.30;;;;;;;;;;5108090;28;20077;-46
2023/12/10 05:55:49;;;;;;;3.63;2.58;;;;;;;;;;5108206;28;20034;-51
2023/12/10 05:58:16;;;;;;;4.22;2.63;;;;;;;;;;5107900;28;20268;-45
2023/12/10 06:00:43;;;;;;;4.03;2.60;;;;;;;;;;5107863;28;20061;-51
2023/12/10 06:03:09;;;;;;;4.15;2.35;;;;;;;;;;5107910;28;20028;-46
2023/12/10 06:05:37;;;;;;;3.55;2.42;;;;;;;;;;5107827;28;20036;-47
2023/12/10 06:08:04;;;;;;;4.97;2.70;;;;;;;;;;5107794;28;20016;-55
2023/12/10 06:10:30;;;;;;;4.60;2.42;;;;;;;;;;5107743;28;20041;-50
2023/12/10 06:12:57;;;;;;;6.45;2.40;;;;;;;;;;5107591;28;20085;-50
2023/12/10 06:15:24;;;;;;;3.35;2.70;;;;;;;;;;5107760;28;20087;-52
2023/12/10 06:17:50;;;;;;;7.07;2.63;;;;;;;;;;5107594;28;20032;-49
2023/12/10 06:20:17;;;;;;;4.38;2.38;;;;;;;;;;5107541;28;20032;-50
2023/12/10 06:22:44;;;;;;;4.97;2.90;;;;;;;;;;5107652;28;20020;-44
2023/12/10 06:25:10;;;;;;;7.68;2.50;;;;;;;;;;5107397;28;20208;-53
2023/12/10 06:27:37;;;;;;;5.47;2.47;;;;;;;;;;5107201;28;20036;-46
2023/12/10 06:30:04;;;;;;;5.85;2.50;;;;;;;;;;5107458;28;20031;-45
2023/12/10 06:32:31;;;;;;;5.55;3.00;;;;;;;;;;5107367;28;20090;-51
2023/12/10 06:34:58;;;;;;;3.78;2.90;;;;;;;;;;5107299;28;20350;-47
2023/12/10 06:37:24;;;;;;;5.63;2.72;;;;;;;;;;5107515;28;20036;-47
2023/12/10 06:39:51;;;;;;;5.32;2.85;;;;;;;;;;5107153;28;20380;-45
2023/12/10 06:42:18;;;;;;;6.22;3.15;;;;;;;;;;5107220;28;20156;-45
2023/12/10 06:44:44;;;;;;;4.07;2.92;;;;;;;;;;5106884;28;20242;-48
2023/12/10 06:47:11;;;;;;;5.43;3.20;;;;;;;;;;5107113;28;20091;-47
2023/12/10 06:49:38;;;;;;;6.05;3.42;;;;;;;;;;5107061;28;20320;-51
2023/12/10 06:52:05;;;;;;;6.68;3.60;;;;;;;;;;5107356;28;20238;-47
2023/12/10 06:54:31;;;;;;;10.75;4.55;;;;;;;;;;5105658;28;20024;-50
2023/12/10 06:56:58;;;;;;;8.30;4.90;;;;;;;;;;5107391;28;20036;-51
2023/12/10 06:59:25;;;;;;;10.55;5.43;;;;;;;;;;5106698;28;20043;-50
2023/12/10 07:01:51;;;;;;;11.50;5.07;;;;;;;;;;5094539;28;20070;-56
2023/12/10 07:04:18;;;;;;;11.93;5.10;;;;;;;;;;5086649;28;20044;-53
2023/12/10 07:06:45;;;;;;;11.40;4.47;;;;;;;;;;5099782;28;20024;-47
2023/12/10 07:09:12;;;;;;;9.45;4.10;;;;;;;;;;5106772;28;20031;-53
2023/12/10 07:11:38;;;;;;;8.13;4.22;;;;;;;;;;5106903;28;20020;-47
2023/12/10 07:14:05;;;;;;;6.93;3.17;;;;;;;;;;5106447;28;20043;-48
2023/12/10 07:16:32;;;;;;;7.68;3.60;;;;;;;;;;5106937;28;20036;-47
2023/12/10 07:18:58;;;;;;;6.05;3.35;;;;;;;;;;5106560;28;20205;-46
2023/12/10 07:21:25;;;;;;;7.38;3.30;;;;;;;;;;5106673;28;20043;-50
2023/12/10 07:23:52;;;;;;;4.13;3.03;;;;;;;;;;5106534;28;20275;-46
2023/12/10 07:26:25;;;;;;;4.90;2.60;;;;;;;;;;5106361;28;20066;-46
2023/12/10 07:28:52;;;;;;;5.28;2.28;;;;;;;;;;5106131;28;20112;-48
2023/12/10 07:31:19;;;;;;;4.80;2.40;;;;;;;;;;5106591;28;20246;-54
2023/12/10 07:33:46;;;;;;;4.30;2.40;;;;;;;;;;5106213;28;20024;-51
2023/12/10 07:36:13;;;;;;;2.97;2.42;;;;;;;;;;5106276;28;20024;-48
2023/12/10 07:38:40;;;;;;;4.82;2.38;;;;;;;;;;5106026;28;20215;-51
2023/12/10 07:41:07;;;;;;;3.13;2.30;;;;;;;;;;5106282;28;20043;-45
2023/12/10 07:43:34;;;;;;;3.33;2.20;;;;;;;;;;5105813;28;20032;-45
2023/12/10 07:46:00;;;;;;;3.67;2.13;;;;;;;;;;5106267;28;20330;-46
2023/12/10 07:48:27;;;;;;;3.15;2.10;;;;;;;;;;5105935;28;20016;-48
2023/12/10 07:50:54;;;;;;;2.88;2.00;;;;;;;;;;5105957;28;20028;-46
2023/12/10 07:53:21;;;;;;;4.75;2.00;;;;;;;;;;5105907;28;20031;-50
2023/12/10 07:55:48;;;;;;;3.88;1.52;;;;;;;;;;5106007;28;20061;-47
2023/12/10 07:58:14;;;;;;;3.03;1.70;;;;;;;;;;5105628;28;20054;-52
2023/12/10 08:00:46;;;;;;;2.75;1.70;;;;;;;;;;5105910;28;20030;-45
2023/12/10 08:03:14;;;;;;;3.47;1.67;;;;;;;;;;5105596;28;20327;-51
2023/12/10 08:05:40;;;;;;;4.03;1.98;;;;;;;;;;5105336;28;20067;-49
2023/12/10 08:08:07;;;;;;;1.45;1.30;;;;;;;;;;5105638;28;20025;-47
2023/12/10 08:10:34;;;;;;;2.88;1.38;;;;;;;;;;5105674;28;20027;-52
2023/12/10 08:13:00;;;;;;;3.55;1.60;;;;;;;;;;5105324;28;20087;-49
2023/12/10 08:15:27;;;;;;;3.33;1.48;;;;;;;;;;5105577;28;20028;-49
2023/12/10 08:17:54;;;;;;;2.67;1.50;;;;;;;;;;5105626;28;20020;-55
2023/12/10 08:20:21;;;;;;;7.20;2.78;;;;;;;;;;5105157;28;20036;-49
2023/12/10 08:22:50;;;;;;;6.95;3.00;;;;;;;;;;5105522;28;20023;-49
2023/12/10 08:25:17;;;;;;;5.70;2.35;;;;;;;;;;5105122;28;20024;-51
2023/12/10 08:27:44;;;;;;;6.32;2.38;;;;;;;;;;5104780;28;20117;-49
2023/12/10 08:30:11;;;;;;;4.07;2.20;;;;;;;;;;5104995;28;20024;-47
2023/12/10 08:32:37;;;;;;;4.20;1.60;;;;;;;;;;5105028;28;20050;-52
2023/12/10 08:35:04;;;;;;;4.07;1.70;;;;;;;;;;5104971;28;20071;-46
2023/12/10 08:37:31;;;;;;;3.72;1.80;;;;;;;;;;5105086;28;20027;-46
2023/12/10 08:39:58;;;;;;;5.63;1.60;;;;;;;;;;5104879;28;20181;-47
2023/12/10 08:42:25;;;;;;;4.15;1.50;;;;;;;;;;5104846;28;20051;-47
2023/12/10 08:44:52;;;;;;;4.88;1.70;;;;;;;;;;5104621;28;20042;-55
2023/12/10 08:47:19;;;;;;;3.08;1.65;;;;;;;;;;5104871;28;20024;-49
2023/12/10 08:49:45;;;;;;;3.58;1.38;;;;;;;;;;5104561;28;20046;-52
2023/12/10 08:52:12;;;;;;;3.33;1.38;;;;;;;;;;5104669;28;20023;-47
2023/12/10 08:54:39;;;;;;;4.93;1.40;;;;;;;;;;5104749;28;20027;-57
2023/12/10 08:57:05;;;;;;;5.40;1.42;;;;;;;;;;5104971;28;20095;-50
2023/12/10 08:59:32;;;;;;;1.52;1.10;;;;;;;;;;5104717;28;20103;-53
2023/12/10 09:01:59;;;;;;;2.10;1.35;;;;;;;;;;5097910;28;20135;-48
2023/12/10 09:04:25;;;;;;;2.25;1.48;;;;;;;;;;5084348;28;20316;-48
2023/12/10 09:06:52;;;;;;;2.53;1.55;;;;;;;;;;5084552;28;20059;-45
2023/12/10 09:09:19;;;;;;;2.85;1.38;;;;;;;;;;5084082;28;20070;-45
2023/12/10 09:11:47;;;;;;;3.47;1.33;;;;;;;;;;5083148;28;20103;-50
2023/12/10 09:14:14;;;;;;;4.40;1.42;;;;;;;;;;5084286;28;20089;-45
2023/12/10 09:16:41;;;;;;;3.35;1.27;;;;;;;;;;5083394;28;20024;-49
2023/12/10 09:19:07;;;;;;;3.25;1.10;;;;;;;;;;5083939;28;20339;-46
2023/12/10 09:21:34;;;;;;;3.28;1.30;;;;;;;;;;5084306;28;20036;-57
2023/12/10 09:24:01;;;;;;;2.95;1.27;;;;;;;;;;5083848;28;20091;-51
2023/12/10 09:26:30;;;;;;;2.05;1.10;;;;;;;;;;5083909;28;20072;-45
2023/12/10 09:28:57;;;;;;;2.25;1.27;;;;;;;;;;5084504;28;20055;-44
2023/12/10 09:31:23;;;;;;;1.67;0.88;;;;;;;;;;5084375;28;20069;-51
2023/12/10 09:33:50;;;;;;;3.13;1.20;;;;;;;;;;5083906;28;20028;-51
2023/12/10 09:36:17;;;;;;;3.03;1.27;;;;;;;;;;5084055;28;20339;-47
2023/12/10 09:38:44;;;;;;;2.83;1.17;;;;;;;;;;5083934;28;20065;-48
2023/12/10 09:41:11;;;;;;;1.88;1.02;;;;;;;;;;5084060;28;20103;-47
2023/12/10 09:43:38;;;;;;;2.50;1.10;;;;;;;;;;5083528;28;20017;-47
2023/12/10 09:46:05;;;;;;;1.95;0.95;;;;;;;;;;5084111;28;20031;-47
2023/12/10 09:48:32;;;;;;;1.52;1.10;;;;;;;;;;5083668;28;20024;-44
2023/12/10 09:50:58;;;;;;;2.13;1.17;;;;;;;;;;5083812;28;20033;-47
2023/12/10 09:53:25;;;;;;;3.08;1.20;;;;;;;;;;5083950;28;20027;-48
2023/12/10 09:55:52;;;;;;;3.25;1.15;;;;;;;;;;5083894;28;20037;-49
2023/12/10 09:58:19;;;;;;;2.25;1.08;;;;;;;;;;5083509;28;20028;-53
2023/12/10 10:00:45;;;;;;;2.47;1.02;;;;;;;;;;5083835;28;20033;-51
2023/12/10 10:03:12;;;;;;;3.28;1.30;;;;;;;;;;5083648;28;20077;-45
2023/12/10 10:05:39;;;;;;;3.45;1.20;;;;;;;;;;5083448;28;20034;-50
2023/12/10 10:08:06;;;;;;;2.15;1.30;;;;;;;;;;5083643;28;20017;-51
2023/12/10 10:10:32;;;;;;;1.98;1.02;;;;;;;;;;5083812;28;20200;-45
2023/12/10 10:12:59;;;;;;;2.50;1.15;;;;;;;;;;5083400;28;20021;-48
2023/12/10 10:15:30;;;;;;;2.97;1.10;;;;;;;;;;5083598;28;20027;-45
2023/12/10 10:17:57;;;;;;;1.52;1.00;;;;;;;;;;5083441;28;20201;-47
2023/12/10 10:20:25;;;;;;;1.92;1.08;;;;;;;;;;5083361;28;20024;-48
2023/12/10 10:22:52;;;;;;;2.22;1.15;;;;;;;;;;5083383;28;20027;-48
2023/12/10 10:25:20;;;;;;;1.98;0.80;;;;;;;;;;5083445;28;20028;-49
2023/12/10 10:27:46;;;;;;;1.02;0.70;;;;;;;;;;5083009;28;20062;-46
2023/12/10 10:30:13;;;;;;;2.83;0.90;;;;;;;;;;5087309;28;20028;-50
2023/12/10 10:32:40;;;;;;;1.30;0.80;;;;;;;;;;5087035;28;20028;-44
2023/12/10 10:35:08;;;;;;;2.30;0.70;;;;;;;;;;5086971;28;20040;-49
2023/12/10 10:37:35;;;;;;;2.47;0.93;;;;;;;;;;5086908;28;20024;-52
2023/12/10 10:40:03;;;;;;;0.88;0.70;;;;;;;;;;5086877;28;20035;-46
2023/12/10 10:42:30;;;;;;;2.33;0.80;;;;;;;;;;5086871;28;20054;-54
2023/12/10 10:44:56;;;;;;;2.95;0.85;;;;;;;;;;5086814;28;20073;-50
2023/12/10 10:47:23;;;;;;;0.85;0.73;;;;;;;;;;5086848;28;20091;-49
2023/12/10 10:49:55;;;;;;;1.80;0.80;;;;;;;;;;5086505;28;20269;-50
2023/12/10 10:52:25;;;;;;;4.07;0.70;;;;;;;;;;5086681;28;20025;-54
2023/12/10 10:54:55;;;;;;;1.23;0.70;;;;;;;;;;5086591;28;20201;-47
2023/12/10 10:57:31;;;;;;;1.92;0.68;;;;;;;;;;5086584;28;20052;-48
2023/12/10 10:59:58;;;;;;;2.42;0.80;;;;;;;;;;5086528;28;20090;-51
2023/12/10 11:02:25;;;;;;;3.47;1.00;;;;;;;;;;5086437;28;20036;-46
2023/12/10 11:04:52;;;;;;;2.58;1.10;;;;;;;;;;5086275;28;20032;-47
2023/12/10 11:07:20;;;;;;;2.97;1.02;;;;;;;;;;5086372;28;20051;-45
2023/12/10 11:09:58;;;;;;;7.45;1.20;;;;;;;;;;5086218;28;20320;-55
2023/12/10 11:12:44;;;;;;;3.10;1.25;;;;;;;;;;5086308;28;20094;-51
2023/12/10 11:15:16;;;;;;;3.00;1.13;;;;;;;;;;5086152;28;20247;-51
2023/12/10 11:17:43;;;;;;;;;;;;;;;;;;5091197;28;20036;-50
2023/12/10 11:20:30;;;;;;;1.25;0.70;;;;;;;;;;5086187;28;19912;-46
2023/12/10 11:22:57;;;;;;;1.27;0.98;;;;;;;;;;5102350;28;20342;-44
2023/12/10 11:25:23;;;;;;;1.83;0.90;;;;;;;;;;5106393;28;20024;-47
2023/12/10 11:27:50;;;;;;;2.17;1.10;;;;;;;;;;5105901;28;20048;-52
2023/12/10 11:30:17;;;;;;;2.47;1.02;;;;;;;;;;5106248;28;20032;-51
2023/12/10 11:32:45;;;;;;;2.92;0.90;;;;;;;;;;5105017;28;20246;-53
2023/12/10 11:35:14;;;;;;;4.30;0.90;;;;;;;;;;5106009;28;20059;-50
2023/12/10 11:37:42;;;;;;;4.38;1.10;;;;;;;;;;5106060;28;20077;-49
2023/12/10 11:40:09;;;;;;;2.40;0.90;;;;;;;;;;5105470;28;20035;-47
2023/12/10 11:42:36;;;;;;;2.53;0.88;;;;;;;;;;5106143;28;20036;-47
2023/12/10 11:45:04;;;;;;;2.28;1.00;;;;;;;;;;5105832;28;20027;-49
2023/12/10 11:47:31;;;;;;;1.88;0.93;;;;;;;;;;5105872;28;20016;-50
2023/12/10 11:49:57;;;;;;;2.05;1.17;;;;;;;;;;5105743;28;20211;-50
2023/12/10 11:52:24;;;;;;;4.80;0.93;;;;;;;;;;5105890;28;20089;-46
2023/12/10 11:54:51;;;;;;;4.43;1.23;;;;;;;;;;5105786;28;20083;-49
2023/12/10 11:57:18;;;;;;;4.40;1.30;;;;;;;;;;5105611;28;20031;-49
2023/12/10 11:59:51;;;;;;;4.03;1.15;;;;;;;;;;5105514;28;20224;-54
2023/12/10 12:02:18;;;;;;;2.28;1.00;;;;;;;;;;5105631;28;20371;-51
2023/12/10 12:04:45;;;;;;;6.13;1.10;;;;;;;;;;5105424;28;20335;-45
2023/12/10 12:07:26;;;;;;;4.55;1.40;;;;;;;;;;5105651;28;20020;-45
2023/12/10 12:09:53;;;;;;;5.82;1.15;;;;;;;;;;5105305;28;20032;-52
2023/12/10 12:12:20;;;;;;;2.20;0.98;;;;;;;;;;5105394;28;20024;-49
2023/12/10 12:14:48;;;;;;;2.15;1.23;;;;;;;;;;5105302;28;20260;-51
2023/12/10 12:17:16;;;;;;;3.83;1.00;;;;;;;;;;5105181;28;20046;-50
2023/12/10 12:19:43;;;;;;;4.32;1.00;;;;;;;;;;5105360;28;20020;-50
2023/12/10 12:22:12;;;;;;;1.30;1.15;;;;;;;;;;5105209;28;20038;-49
2023/12/10 12:24:39;;;;;;;2.28;1.20;;;;;;;;;;5105021;28;20035;-51
2023/12/10 12:27:09;;;;;;;2.28;1.33;;;;;;;;;;5105032;28;20048;-50
2023/12/10 12:29:36;;;;;;;5.20;1.25;;;;;;;;;;5105129;28;20020;-48
2023/12/10 12:32:03;;;;;;;1.50;1.00;;;;;;;;;;5105336;28;20050;-47
2023/12/10 12:34:30;;;;;;;3.88;1.10;;;;;;;;;;5104949;28;20020;-54
2023/12/10 12:36:58;;;;;;;1.50;1.00;;;;;;;;;;5105413;28;20024;-46
2023/12/10 12:39:25;;;;;;;2.67;1.20;;;;;;;;;;5104811;28;20043;-51
2023/12/10 12:41:52;;;;;;;2.33;0.98;;;;;;;;;;5105226;28;20032;-50
2023/12/10 12:44:19;;;;;;;2.92;0.90;;;;;;;;;;5104889;28;20080;-48
2023/12/10 12:46:45;;;;;;;1.85;0.77;;;;;;;;;;5104621;28;20032;-56
2023/12/10 12:49:12;;;;;;;1.38;0.98;;;;;;;;;;5104882;28;20016;-48
2023/12/10 12:51:39;;;;;;;4.35;1.25;;;;;;;;;;5104395;28;20196;-49
2023/12/10 12:54:06;;;;;;;4.30;1.25;;;;;;;;;;5104618;28;20032;-50
2023/12/10 12:56:33;;;;;;;4.03;1.10;;;;;;;;;;5104909;28;20024;-47
2023/12/10 12:59:00;;;;;;;4.18;1.20;;;;;;;;;;5104724;28;20019;-45
2023/12/10 13:01:26;;;;;;;3.28;1.15;;;;;;;;;;5104825;28;20039;-49
2023/12/10 13:03:53;;;;;;;3.03;1.35;;;;;;;;;;5104557;28;20027;-53
2023/12/10 13:06:20;;;;;;;4.10;1.38;;;;;;;;;;5104809;28;20035;-49
2023/12/10 13:08:49;;;;;;;2.67;1.27;;;;;;;;;;5104232;28;20024;-51
2023/12/10 13:11:16;;;;;;;3.15;1.65;;;;;;;;;;5112295;28;20204;-45
2023/12/10 13:13:43;;;;;;;3.88;1.42;;;;;;;;;;5124784;28;20015;-46
2023/12/10 13:16:10;;;;;;;5.18;1.67;;;;;;;;;;5116832;28;20036;-46
2023/12/10 13:18:37;;;;;;;2.83;1.67;;;;;;;;;;5084027;28;20050;-49
2023/12/10 13:21:03;;;;;;;4.10;1.70;;;;;;;;;;5084327;28;20062;-45
2023/12/10 13:23:30;;;;;;;3.78;1.60;;;;;;;;;;5101767;28;20028;-46
2023/12/10 13:25:57;;;;;;;2.63;1.90;;;;;;;;;;5104123;28;20048;-50
2023/12/10 13:28:24;;;;;;;3.28;1.67;;;;;;;;;;5104186;28;20388;-46
2023/12/10 13:30:51;;;;;;;3.80;1.90;;;;;;;;;;5100804;28;20039;-46
2023/12/10 13:33:17;;;;;;;4.55;2.00;;;;;;;;;;5097612;28;20316;-50
2023/12/10 13:35:44;;;;;;;2.60;1.52;;;;;;;;;;5084018;28;20024;-44
2023/12/10 13:38:12;;;;;;;4.95;2.13;;;;;;;;;;5083693;28;20050;-47
2023/12/10 13:40:38;;;;;;;4.45;2.25;;;;;;;;;;5085989;28;20037;-45
2023/12/10 13:43:05;;;;;;;4.03;2.30;;;;;;;;;;5091432;28;20023;-49
2023/12/10 13:45:32;;;;;;;6.28;2.13;;;;;;;;;;5083828;28;20040;-57
2023/12/10 13:48:00;;;;;;;6.55;3.50;;;;;;;;;;5101382;28;20023;-47
2023/12/10 13:50:27;;;;;;;6.45;2.70;;;;;;;;;;5103054;28;20039;-50
2023/12/10 13:52:54;;;;;;;10.30;3.42;;;;;;;;;;5093148;28;20090;-64
2023/12/10 13:55:20;;;;;;;13.65;3.58;;;;;;;;;;5088554;28;20243;-58
2023/12/10 13:57:47;;;;;;;22.42;3.75;;;;;;;;;;5103519;28;20016;-58
2023/12/10 14:00:15;;;;;;;16.42;3.78;;;;;;;;;;5103038;28;20032;-60
2023/12/10 14:02:42;;;;;;;23.45;3.67;;;;;;;;;;5099813;28;20024;-52
2023/12/10 14:05:09;;;;;;;8.45;2.95;;;;;;;;;;5107936;28;20314;-47
2023/12/10 14:07:36;;;;;;;8.35;3.28;;;;;;;;;;5106529;28;20032;-55
2023/12/10 14:10:04;;;;;;;7.45;3.38;;;;;;;;;;5101239;28;20036;-48
2023/12/10 14:12:32;;;;;;;7.75;2.80;;;;;;;;;;5093187;28;20024;-49
2023/12/10 14:15:00;;;;;;;4.55;2.63;;;;;;;;;;5087283;28;20096;-46
2023/12/10 14:17:27;;;;;;;8.45;3.20;;;;;;;;;;5087385;28;20028;-52
2023/12/10 14:19:53;;;;;;;7.18;2.65;;;;;;;;;;5087321;28;20327;-45
2023/12/10 14:22:20;;;;;;;6.53;2.90;;;;;;;;;;5087366;28;20060;-63
2023/12/10 14:24:47;;;;;;;24.45;3.80;;;;;;;;;;5087094;28;20028;-63
2023/12/10 14:27:13;;;;;;;12.27;3.53;;;;;;;;;;5086993;28;20040;-56
2023/12/10 14:29:40;;;;;;;8.77;3.35;;;;;;;;;;5087101;28;20383;-62
2023/12/10 14:32:07;;;;;;;7.15;2.85;;;;;;;;;;5086998;28;20036;-62
2023/12/10 14:34:34;;;;;;;11.48;3.45;;;;;;;;;;5091564;28;20016;-59
2023/12/10 14:37:01;;;;;;;7.30;3.00;;;;;;;;;;5106424;28;20091;-46
2023/12/10 14:39:27;;;;;;;4.95;3.00;;;;;;;;;;5107173;28;20043;-52